createdAt,value
2022-10-25T00:02:24.293Z,83.20
2022-10-25T00:04:51.339Z,83.40
2022-10-25T00:07:18.421Z,83.50
2022-10-25T00:12:43.294Z,83.70
2022-10-25T00:15:13.200Z,83.90
2022-10-25T00:17:41.066Z,83.90
2022-10-25T00:20:09.728Z,84.00
2022-10-25T00:22:37.178Z,84.10
2022-10-25T00:25:06.500Z,84.40
2022-10-25T00:27:34.377Z,84.40
2022-10-25T00:30:01.874Z,84.50
2022-10-25T00:32:28.921Z,84.50
2022-10-25T00:34:55.947Z,84.60
2022-10-25T00:37:22.804Z,84.80
2022-10-25T00:39:49.785Z,85.10
2022-10-25T00:42:26.889Z,85.20
2022-10-25T00:45:01.745Z,85.20
2022-10-25T00:47:46.173Z,85.00
2022-10-25T00:50:49.999Z,85.20
2022-10-25T00:53:32.267Z,84.90
2022-10-25T00:56:16.459Z,85.00
2022-10-25T00:58:50.461Z,84.80
2022-10-25T01:01:18.703Z,84.80
2022-10-25T01:03:48.135Z,84.80
2022-10-25T01:06:23.631Z,84.80
2022-10-25T01:08:53.264Z,85.20
2022-10-25T01:11:20.675Z,85.10
2022-10-25T01:13:49.636Z,85.20
2022-10-25T01:16:53.888Z,85.50
2022-10-25T01:19:45.788Z,85.80
2022-10-25T01:22:38.910Z,85.60
2022-10-25T01:25:34.861Z,85.60
2022-10-25T01:28:27.419Z,85.60
2022-10-25T01:32:11.445Z,85.40
2022-10-25T01:34:47.992Z,85.50
2022-10-25T01:37:21.719Z,85.20
2022-10-25T01:40:04.175Z,85.30
2022-10-25T01:43:00.259Z,85.10
2022-10-25T01:45:52.311Z,85.30
2022-10-25T01:48:38.056Z,87.40
2022-10-25T01:51:16.509Z,88.00
2022-10-25T01:53:51.977Z,88.90
2022-10-25T01:56:46.888Z,89.40
2022-10-25T01:59:24.954Z,89.50
2022-10-25T02:02:36.894Z,90.10
2022-10-25T02:05:37.861Z,90.30
2022-10-25T02:08:29.911Z,90.30
2022-10-25T02:11:09.246Z,90.50
2022-10-25T02:14:13.620Z,90.70
2022-10-25T02:17:13.630Z,91.00
2022-10-25T02:19:46.195Z,91.10
2022-10-25T02:22:14.846Z,91.00
2022-10-25T02:24:45.939Z,91.10
2022-10-25T02:27:14.071Z,91.20
2022-10-25T02:29:42.811Z,91.30
2022-10-25T02:32:09.914Z,91.40
2022-10-25T02:34:37.063Z,91.60
2022-10-25T02:37:03.908Z,91.60
2022-10-25T02:39:31.705Z,91.60
2022-10-25T02:42:02.148Z,91.70
2022-10-25T02:44:29.342Z,91.80
2022-10-25T02:46:56.160Z,91.90
2022-10-25T02:49:23.128Z,91.90
2022-10-25T02:52:15.500Z,91.90
2022-10-25T02:54:42.348Z,92.00
2022-10-25T02:57:09.366Z,92.00
2022-10-25T02:59:36.216Z,92.00
2022-10-25T03:02:03.058Z,92.10
2022-10-25T03:04:30.219Z,92.10
2022-10-25T03:06:57.748Z,92.20
2022-10-25T03:09:24.535Z,92.20
2022-10-25T03:11:51.683Z,92.30
2022-10-25T03:14:18.684Z,92.40
2022-10-25T03:16:45.558Z,92.50
2022-10-25T03:19:12.395Z,92.50
2022-10-25T03:21:41.292Z,92.40
2022-10-25T03:24:09.153Z,92.40
2022-10-25T03:26:35.964Z,92.40
2022-10-25T03:29:02.822Z,92.40
2022-10-25T03:31:29.879Z,92.50
2022-10-25T03:33:56.713Z,92.50
2022-10-25T03:36:23.520Z,92.50
2022-10-25T03:38:50.512Z,92.50
2022-10-25T03:41:17.669Z,92.80
2022-10-25T03:43:44.533Z,92.50
2022-10-25T03:46:13.963Z,92.40
2022-10-25T03:48:41.066Z,92.40
2022-10-25T03:51:08.310Z,92.40
2022-10-25T03:53:35.078Z,92.40
2022-10-25T03:56:02.262Z,92.30
2022-10-25T03:58:29.263Z,92.70
2022-10-25T04:00:56.463Z,92.50
2022-10-25T04:03:23.987Z,92.60
2022-10-25T04:05:50.904Z,92.70
2022-10-25T04:08:18.039Z,92.80
2022-10-25T04:10:44.869Z,92.80
2022-10-25T04:13:12.076Z,92.90
2022-10-25T04:15:38.928Z,93.00
2022-10-25T04:18:06.427Z,93.00
2022-10-25T04:20:33.337Z,93.00
2022-10-25T04:23:00.149Z,93.10
2022-10-25T04:25:28.809Z,93.20
2022-10-25T04:27:55.866Z,93.20
2022-10-25T04:30:23.118Z,93.20
2022-10-25T04:32:50.286Z,93.30
2022-10-25T04:35:18.030Z,93.30
2022-10-25T04:37:44.889Z,93.30
2022-10-25T04:40:12.067Z,93.40
2022-10-25T04:42:39.168Z,93.50
2022-10-25T04:45:06.631Z,93.60
2022-10-25T04:47:34.092Z,93.60
2022-10-25T04:50:00.975Z,93.70
2022-10-25T04:52:32.180Z,93.70
2022-10-25T04:54:59.259Z,93.80
2022-10-25T04:57:26.865Z,93.80
2022-10-25T04:59:53.834Z,93.80
2022-10-25T05:02:20.680Z,93.80
2022-10-25T05:04:47.713Z,93.80
2022-10-25T05:07:18.503Z,93.70
2022-10-25T05:09:47.394Z,93.70
2022-10-25T05:12:15.003Z,93.70
2022-10-25T05:14:41.840Z,93.70
2022-10-25T05:17:08.703Z,93.70
2022-10-25T05:19:35.737Z,93.70
2022-10-25T05:22:02.758Z,93.70
2022-10-25T05:24:29.644Z,93.80
2022-10-25T05:26:56.636Z,93.80
2022-10-25T05:29:23.549Z,93.80
2022-10-25T05:31:50.761Z,93.80
2022-10-25T05:34:17.565Z,93.80
2022-10-25T05:36:44.553Z,93.80
2022-10-25T05:39:11.489Z,93.80
2022-10-25T05:41:38.297Z,93.80
2022-10-25T05:44:06.242Z,93.80
2022-10-25T05:46:33.322Z,93.70
2022-10-25T05:49:00.571Z,93.70
2022-10-25T05:51:37.624Z,93.70
2022-10-25T05:54:12.230Z,93.70
2022-10-25T05:56:40.174Z,93.80
2022-10-25T05:59:10.772Z,93.80
2022-10-25T06:01:41.510Z,93.80
2022-10-25T06:04:09.837Z,93.90
2022-10-25T06:06:38.610Z,94.00
2022-10-25T06:09:06.603Z,94.00
2022-10-25T06:11:33.856Z,94.10
2022-10-25T06:14:02.521Z,94.00
2022-10-25T06:16:29.550Z,94.10
2022-10-25T06:18:56.548Z,94.10
2022-10-25T06:21:33.877Z,94.10
2022-10-25T06:24:00.780Z,94.10
2022-10-25T06:26:30.108Z,94.00
2022-10-25T06:29:03.238Z,94.00
2022-10-25T06:31:31.501Z,94.00
2022-10-25T06:34:02.818Z,94.10
2022-10-25T06:36:31.408Z,94.00
2022-10-25T06:39:03.769Z,94.00
2022-10-25T06:41:37.236Z,93.90
2022-10-25T06:44:06.720Z,94.00
2022-10-25T06:46:57.956Z,93.90
2022-10-25T06:49:25.112Z,93.90
2022-10-25T06:51:52.342Z,93.90
2022-10-25T06:54:19.487Z,93.90
2022-10-25T06:56:46.466Z,94.00
2022-10-25T06:59:13.480Z,94.10
2022-10-25T07:01:40.373Z,94.10
2022-10-25T07:04:07.566Z,94.10
2022-10-25T07:06:37.467Z,94.10
2022-10-25T07:09:06.578Z,94.10
2022-10-25T07:11:33.821Z,94.10
2022-10-25T07:14:02.224Z,94.20
2022-10-25T07:16:29.377Z,94.20
2022-10-25T07:19:03.586Z,94.30
2022-10-25T07:21:32.663Z,94.30
2022-10-25T07:23:59.569Z,94.30
2022-10-25T07:26:31.256Z,94.30
2022-10-25T07:29:00.589Z,94.30
2022-10-25T07:31:36.891Z,94.30
2022-10-25T07:34:05.438Z,94.30
2022-10-25T07:36:32.750Z,94.50
2022-10-25T07:39:03.809Z,94.50
2022-10-25T07:41:34.067Z,94.50
2022-10-25T07:46:53.938Z,94.70
2022-10-25T07:49:20.812Z,94.90
2022-10-25T07:51:53.737Z,94.70
2022-10-25T07:54:25.508Z,94.40
2022-10-25T07:56:52.281Z,94.10
2022-10-25T07:59:19.201Z,93.90
2022-10-25T08:01:46.164Z,93.70
2022-10-25T08:04:13.097Z,93.80
2022-10-25T08:06:40.569Z,94.10
2022-10-25T08:09:14.886Z,94.40
2022-10-25T08:11:54.010Z,94.30
2022-10-25T08:14:20.941Z,93.90
2022-10-25T08:16:47.798Z,93.40
2022-10-25T08:19:14.635Z,93.00
2022-10-25T08:21:41.713Z,92.80
2022-10-25T08:24:08.628Z,92.70
2022-10-25T08:26:36.994Z,92.50
2022-10-25T08:29:29.675Z,92.40
2022-10-25T08:31:56.842Z,92.10
2022-10-25T08:34:32.379Z,92.10
2022-10-25T08:37:00.355Z,92.30
2022-10-25T08:39:27.128Z,92.40
2022-10-25T08:42:00.871Z,92.40
2022-10-25T08:44:45.773Z,92.40
2022-10-25T08:47:27.134Z,92.10
2022-10-25T08:50:01.998Z,92.20
2022-10-25T08:52:54.645Z,92.10
2022-10-25T08:55:41.579Z,92.10
2022-10-25T08:58:45.291Z,92.10
2022-10-25T09:01:24.760Z,91.90
2022-10-25T09:03:54.223Z,92.00
2022-10-25T09:06:56.168Z,91.70
2022-10-25T09:12:53.067Z,92.20
2022-10-25T09:15:30.390Z,92.50
2022-10-25T09:18:19.332Z,92.70
2022-10-25T09:20:51.116Z,93.40
2022-10-25T09:23:36.194Z,94.00
2022-10-25T09:26:26.373Z,94.10
2022-10-25T09:29:05.322Z,93.20
2022-10-25T09:31:43.187Z,92.80
2022-10-25T09:34:11.463Z,92.70
2022-10-25T09:36:47.153Z,92.00
2022-10-25T09:39:42.929Z,91.80
2022-10-25T09:42:22.186Z,91.50
2022-10-25T09:44:55.037Z,91.60
2022-10-25T09:47:51.046Z,91.20
2022-10-25T09:50:44.522Z,91.50
2022-10-25T09:53:20.328Z,91.30
2022-10-25T09:56:02.589Z,91.50
2022-10-25T09:58:36.620Z,92.00
2022-10-25T10:01:18.382Z,92.20
2022-10-25T10:09:35.085Z,90.70
2022-10-25T10:15:01.455Z,86.20
2022-10-25T10:17:30.551Z,84.30
2022-10-25T10:20:16.784Z,82.80
2022-10-25T10:22:51.842Z,80.10
2022-10-25T10:25:26.557Z,78.30
2022-10-25T10:27:58.057Z,77.80
2022-10-25T10:30:31.617Z,76.70
2022-10-25T10:33:01.534Z,75.50
2022-10-25T10:35:31.917Z,75.40
2022-10-25T10:38:24.737Z,75.20
2022-10-25T10:41:23.516Z,74.20
2022-10-25T10:43:51.213Z,74.00
2022-10-25T10:46:24.815Z,73.70
2022-10-25T10:48:57.493Z,73.40
2022-10-25T10:51:44.054Z,73.20
2022-10-25T10:54:46.517Z,72.80
2022-10-25T10:57:35.996Z,73.20
2022-10-25T11:00:05.700Z,73.20
2022-10-25T11:02:42.311Z,73.50
2022-10-25T11:05:34.210Z,73.80
2022-10-25T11:08:19.598Z,73.70
2022-10-25T11:10:46.765Z,73.30
2022-10-25T11:13:17.204Z,73.90
2022-10-25T11:16:41.443Z,74.20
2022-10-25T11:19:11.260Z,74.10
2022-10-25T11:22:00.479Z,74.20
2022-10-25T11:24:53.676Z,74.50
2022-10-25T11:28:05.085Z,74.50
2022-10-25T11:31:11.172Z,73.00
2022-10-25T11:34:32.856Z,72.20
2022-10-25T11:37:24.473Z,71.90
2022-10-25T11:40:13.631Z,69.90
2022-10-25T11:42:48.876Z,68.90
2022-10-25T11:45:31.749Z,69.20
2022-10-25T11:48:30.305Z,66.80
2022-10-25T11:51:32.161Z,65.00
2022-10-25T11:54:13.965Z,64.30
2022-10-25T11:57:08.845Z,59.60
2022-10-25T12:00:03.876Z,57.60
2022-10-25T12:03:01.890Z,57.60
2022-10-25T12:06:14.104Z,59.40
2022-10-25T12:09:21.825Z,58.20
2022-10-25T12:11:54.169Z,57.00
2022-10-25T12:14:33.996Z,59.30
2022-10-25T12:17:03.444Z,54.80
2022-10-25T12:19:44.009Z,52.80
2022-10-25T12:22:40.421Z,50.40
2022-10-25T12:25:22.972Z,49.80
2022-10-25T12:28:06.739Z,49.00
2022-10-25T12:30:35.351Z,49.20
2022-10-25T12:33:25.823Z,49.50
2022-10-25T12:35:59.690Z,48.30
2022-10-25T12:38:39.528Z,48.70
2022-10-25T12:41:19.772Z,48.80
2022-10-25T12:44:37.721Z,50.00
2022-10-25T12:47:40.876Z,50.70
2022-10-25T12:50:35.817Z,50.60
2022-10-25T12:53:35.122Z,50.30
2022-10-25T12:56:48.135Z,49.00
2022-10-25T12:59:45.000Z,48.20
2022-10-25T13:02:44.491Z,48.80
2022-10-25T13:05:49.284Z,48.60
2022-10-25T13:08:22.436Z,48.70
2022-10-25T13:10:58.617Z,49.10
2022-10-25T13:13:33.766Z,49.50
2022-10-25T13:16:05.347Z,50.10
2022-10-25T13:18:32.403Z,50.90
2022-10-25T13:21:05.609Z,52.00
2022-10-25T13:23:51.616Z,53.40
2022-10-25T13:26:21.385Z,54.30
2022-10-25T13:28:54.301Z,55.00
2022-10-25T13:31:36.300Z,54.90
2022-10-25T13:34:12.576Z,54.10
2022-10-25T13:36:54.168Z,53.70
2022-10-25T13:39:38.630Z,53.40
2022-10-25T13:42:14.515Z,53.60
2022-10-25T13:44:59.357Z,53.70
2022-10-25T13:47:48.191Z,53.60
2022-10-25T13:50:30.881Z,54.20
2022-10-25T13:53:08.791Z,54.50
2022-10-25T13:55:46.584Z,54.70
2022-10-25T13:58:31.718Z,55.40
2022-10-25T14:01:17.933Z,56.00
2022-10-25T14:04:03.639Z,56.60
2022-10-25T14:06:36.365Z,57.10
2022-10-25T14:09:09.511Z,57.60
2022-10-25T14:11:51.709Z,58.00
2022-10-25T14:14:31.704Z,58.30
2022-10-25T14:17:18.888Z,58.60
2022-10-25T14:19:54.828Z,58.80
2022-10-25T14:22:34.972Z,59.20
2022-10-25T14:25:20.844Z,59.00
2022-10-25T14:27:48.565Z,59.30
2022-10-25T14:30:26.100Z,59.30
2022-10-25T14:33:03.702Z,59.40
2022-10-25T14:35:55.998Z,59.60
2022-10-25T14:38:26.493Z,59.80
2022-10-25T14:41:00.149Z,60.10
2022-10-25T14:43:28.669Z,60.30
2022-10-25T14:46:11.606Z,60.60
2022-10-25T14:48:38.729Z,60.90
2022-10-25T14:51:12.861Z,61.10
2022-10-25T14:53:56.957Z,61.50
2022-10-25T14:56:32.868Z,61.90
2022-10-25T14:59:00.936Z,62.30
2022-10-25T15:01:28.193Z,62.20
2022-10-25T15:03:59.345Z,62.30
2022-10-25T15:06:31.391Z,61.80
2022-10-25T15:09:40.721Z,61.80
2022-10-25T15:12:08.129Z,61.70
2022-10-25T15:14:35.739Z,61.90
2022-10-25T15:17:18.820Z,61.80
2022-10-25T15:20:16.998Z,62.10
2022-10-25T15:22:47.469Z,62.50
2022-10-25T15:25:23.983Z,62.60
2022-10-25T15:27:55.617Z,63.20
2022-10-25T15:30:50.026Z,63.40
2022-10-25T15:33:25.605Z,64.10
2022-10-25T15:36:04.437Z,64.30
2022-10-25T15:39:06.303Z,64.80
2022-10-25T15:41:23.665Z,65.10
2022-10-25T15:43:52.162Z,65.50
2022-10-25T15:46:36.320Z,65.90
2022-10-25T15:49:08.509Z,66.50
2022-10-25T15:51:40.997Z,66.90
2022-10-25T15:54:20.224Z,67.20
2022-10-25T15:57:11.972Z,67.60
2022-10-25T15:59:39.039Z,67.60
2022-10-25T16:02:23.374Z,67.90
2022-10-25T16:04:50.494Z,68.50
2022-10-25T16:07:17.721Z,68.50
2022-10-25T16:09:44.633Z,69.00
2022-10-25T16:12:30.603Z,69.30
2022-10-25T16:15:22.822Z,70.10
2022-10-25T16:17:49.735Z,69.80
2022-10-25T16:20:21.705Z,70.20
2022-10-25T16:22:49.949Z,70.60
2022-10-25T16:25:18.623Z,70.90
2022-10-25T16:27:47.147Z,72.00
2022-10-25T16:30:18.721Z,71.60
2022-10-25T16:32:46.220Z,72.10
2022-10-25T16:35:14.197Z,72.30
2022-10-25T16:37:42.078Z,72.70
2022-10-25T16:40:14.844Z,72.90
2022-10-25T16:42:45.222Z,73.20
2022-10-25T16:45:20.800Z,73.40
2022-10-25T16:47:47.639Z,74.10
2022-10-25T16:50:15.128Z,74.00
2022-10-25T16:52:42.311Z,74.40
2022-10-25T16:55:10.824Z,74.70
2022-10-25T16:57:37.932Z,75.70
2022-10-25T17:00:05.670Z,75.20
2022-10-25T17:02:32.687Z,75.50
2022-10-25T17:04:59.838Z,75.70
2022-10-25T17:07:27.177Z,75.90
2022-10-25T17:09:54.030Z,76.10
2022-10-25T17:12:21.186Z,76.40
2022-10-25T17:14:48.154Z,76.60
2022-10-25T17:17:15.116Z,76.90
2022-10-25T17:19:42.144Z,77.10
2022-10-25T17:22:09.454Z,77.50
2022-10-25T17:24:37.502Z,77.60
2022-10-25T17:27:07.062Z,77.90
2022-10-25T17:29:33.990Z,78.90
2022-10-25T17:32:01.087Z,78.40
2022-10-25T17:34:28.327Z,78.60
2022-10-25T17:36:55.140Z,78.80
2022-10-25T17:39:22.226Z,78.90
2022-10-25T17:41:49.124Z,79.10
2022-10-25T17:44:15.940Z,79.40
2022-10-25T17:49:10.748Z,79.90
2022-10-25T17:51:37.678Z,80.00
2022-10-25T17:54:04.552Z,80.20
2022-10-25T17:59:05.741Z,80.60
2022-10-25T18:01:35.413Z,80.90
2022-10-25T18:04:02.488Z,81.00
2022-10-25T18:06:31.107Z,81.20
2022-10-25T18:08:59.081Z,81.30
2022-10-25T18:11:28.163Z,81.50
2022-10-25T18:13:58.089Z,81.70
2022-10-25T18:16:27.110Z,81.80
2022-10-25T18:18:57.240Z,81.90
2022-10-25T18:21:24.818Z,82.00
2022-10-25T18:23:57.360Z,82.10
2022-10-25T18:26:25.260Z,82.50
2022-10-25T18:28:52.324Z,82.40
2022-10-25T18:31:20.867Z,82.70
2022-10-25T18:33:48.278Z,82.70
2022-10-25T18:36:19.898Z,83.00
2022-10-25T18:38:50.351Z,83.20
2022-10-25T18:41:21.947Z,83.10
2022-10-25T18:43:49.064Z,83.20
2022-10-25T18:46:16.325Z,83.50
2022-10-25T18:48:45.065Z,83.30
2022-10-25T18:51:14.108Z,83.40
2022-10-25T18:53:41.173Z,83.40
2022-10-25T18:56:11.297Z,83.50
2022-10-25T18:58:39.020Z,83.50
2022-10-25T19:01:12.462Z,83.50
2022-10-25T19:03:40.503Z,83.50
2022-10-25T19:06:08.534Z,83.50
2022-10-25T19:08:36.729Z,83.50
2022-10-25T19:11:10.409Z,83.40
2022-10-25T19:13:38.425Z,83.50
2022-10-25T19:16:06.314Z,83.40
2022-10-25T19:18:34.326Z,83.30
2022-10-25T19:21:07.910Z,83.20
2022-10-25T19:23:35.744Z,83.30
2022-10-25T19:26:09.410Z,83.90
2022-10-25T19:28:36.330Z,83.20
2022-10-25T19:31:06.974Z,83.00
2022-10-25T19:33:34.449Z,83.00
2022-10-25T19:36:05.234Z,82.70
2022-10-25T19:38:36.117Z,82.80
2022-10-25T19:41:05.886Z,82.70
2022-10-25T19:43:33.503Z,82.70
2022-10-25T19:46:04.920Z,82.80
2022-10-25T19:48:32.975Z,83.00
2022-10-25T19:51:10.026Z,83.00
2022-10-25T19:53:37.302Z,83.40
2022-10-25T19:56:21.880Z,83.40
2022-10-25T19:58:51.551Z,83.50
2022-10-25T20:01:23.362Z,83.50
2022-10-25T20:03:52.942Z,83.70
2022-10-25T20:06:24.686Z,83.70
2022-10-25T20:08:52.945Z,83.70
2022-10-25T20:11:21.750Z,83.60
2022-10-25T20:13:53.317Z,83.70
2022-10-25T20:16:20.632Z,83.70
2022-10-25T20:18:47.473Z,83.70
2022-10-25T20:21:39.713Z,83.60
2022-10-25T20:24:10.195Z,83.60
2022-10-25T20:26:40.865Z,83.50
2022-10-25T20:29:18.453Z,83.50
2022-10-25T20:31:48.849Z,83.30
2022-10-25T20:34:16.427Z,83.30
2022-10-25T20:36:43.272Z,83.20
2022-10-25T20:39:12.790Z,83.40
2022-10-25T20:41:40.113Z,83.70
2022-10-25T20:44:08.730Z,83.90
2022-10-25T20:46:36.117Z,84.10
2022-10-25T20:49:04.805Z,84.50
2022-10-25T20:51:31.931Z,84.60
2022-10-25T20:53:58.873Z,84.80
2022-10-25T20:56:26.057Z,84.80
2022-10-25T20:58:52.944Z,84.90
2022-10-25T21:01:21.341Z,84.70
2022-10-25T21:03:48.303Z,84.50
2022-10-25T21:06:15.412Z,84.40
2022-10-25T21:08:42.310Z,84.50
2022-10-25T21:11:12.386Z,84.70
2022-10-25T21:13:39.692Z,84.80
2022-10-25T21:16:13.038Z,84.90
2022-10-25T21:18:41.125Z,85.10
2022-10-25T21:21:13.237Z,85.40
2022-10-25T21:23:40.119Z,85.50
2022-10-25T21:26:08.100Z,85.70
2022-10-25T21:28:38.299Z,85.70
2022-10-25T21:31:09.344Z,85.80
2022-10-25T21:33:36.436Z,85.70
2022-10-25T21:36:11.683Z,85.60
2022-10-25T21:38:39.731Z,85.60
2022-10-25T21:41:13.964Z,85.40
2022-10-25T21:43:44.959Z,85.60
2022-10-25T21:46:13.038Z,85.60
2022-10-25T21:48:40.704Z,85.90
2022-10-25T21:51:07.941Z,86.00
2022-10-25T21:53:34.915Z,86.00
2022-10-25T21:56:13.035Z,86.10
2022-10-25T21:58:42.497Z,86.20
2022-10-25T22:01:15.873Z,86.10
2022-10-25T22:03:43.079Z,86.00
2022-10-25T22:06:17.467Z,86.10
2022-10-25T22:08:45.300Z,86.20
2022-10-25T22:11:15.053Z,86.10
2022-10-25T22:13:42.757Z,86.20
2022-10-25T22:16:16.049Z,86.30
2022-10-25T22:18:47.864Z,86.40
2022-10-25T22:21:14.796Z,86.50
2022-10-25T22:23:41.739Z,86.60
2022-10-25T22:26:12.265Z,86.70
2022-10-25T22:28:41.086Z,86.60
2022-10-25T22:31:15.963Z,86.40
2022-10-25T22:33:44.149Z,86.20
2022-10-25T22:36:16.429Z,86.10
2022-10-25T22:38:43.887Z,86.10
2022-10-25T22:41:16.570Z,86.10
2022-10-25T22:43:43.989Z,86.20
2022-10-25T22:46:22.150Z,86.50
2022-10-25T22:48:49.763Z,86.70
2022-10-25T22:51:16.947Z,86.70
2022-10-25T22:53:44.186Z,86.70
2022-10-25T22:56:22.165Z,86.60
2022-10-25T22:58:52.473Z,86.60
2022-10-25T23:01:31.652Z,86.50
2022-10-25T23:04:00.313Z,86.30
2022-10-25T23:06:33.968Z,86.20
2022-10-25T23:09:05.877Z,86.20
2022-10-25T23:11:35.506Z,86.10
2022-10-25T23:14:05.047Z,85.90
2022-10-25T23:16:32.139Z,85.80
2022-10-25T23:18:59.294Z,85.70
2022-10-25T23:21:30.217Z,85.90
2022-10-25T23:24:03.609Z,86.10
2022-10-25T23:26:33.561Z,86.40
2022-10-25T23:29:01.232Z,86.60
2022-10-25T23:31:29.697Z,86.80
2022-10-25T23:33:59.984Z,87.00
2022-10-25T23:36:30.957Z,87.10
2022-10-25T23:38:58.551Z,86.90
2022-10-25T23:41:25.672Z,86.70
2022-10-25T23:43:52.932Z,86.60
2022-10-25T23:46:19.735Z,86.50
2022-10-25T23:49:11.819Z,86.50
2022-10-25T23:51:38.676Z,86.30
2022-10-25T23:54:09.331Z,86.60
2022-10-25T23:56:37.304Z,86.30
2022-10-25T23:59:04.342Z,86.30
